Time;durP1;ratioP1;P1;durP2;ratioP2;P2;SDS_P1;SDS_P2;PMS_P1;PMS_P2;Temp;Humidity;BMP_temperature;BMP_pressure;BME280_temperature;BME280_humidity;BME280_pressure;Samples;Min_cycle;Max_cycle;Signal;HPM_P1;HPM_P2
2022/01/19 00:00:45;;;;;;;34.23;26.70;;;;;;;;;;6082229;29;20233;-63
2022/01/19 00:04:05;;;;;;;41.90;29.87;;;;;;;;;;6075900;29;20310;-63
2022/01/19 00:07:27;;;;;;;40.87;29.97;;;;;;;;;;6089109;29;20771;-63
2022/01/19 00:10:49;;;;;;;43.03;31.20;;;;;;;;;;6088136;29;20241;-64
2022/01/19 00:14:10;;;;;;;42.90;32.63;;;;;;;;;;6086289;28;20758;-64
2022/01/19 00:17:30;;;;;;;42.90;31.70;;;;;;;;;;6087640;29;20768;-64
2022/01/19 00:20:51;;;;;;;36.50;28.27;;;;;;;;;;6086334;29;20232;-64
2022/01/19 00:24:13;;;;;;;38.33;27.37;;;;;;;;;;6083271;29;20327;-63
2022/01/19 00:27:34;;;;;;;35.70;27.37;;;;;;;;;;6087290;29;20244;-63
2022/01/19 00:30:55;;;;;;;33.20;24.30;;;;;;;;;;6092847;29;20601;-63
2022/01/19 00:34:15;;;;;;;37.13;26.73;;;;;;;;;;6083004;29;20857;-65
2022/01/19 00:37:36;;;;;;;39.07;30.07;;;;;;;;;;6087806;29;20544;-63
2022/01/19 00:40:58;;;;;;;36.27;28.23;;;;;;;;;;6092072;29;20245;-63
2022/01/19 00:44:18;;;;;;;31.57;25.33;;;;;;;;;;6095007;29;20256;-64
2022/01/19 00:47:39;;;;;;;33.63;25.47;;;;;;;;;;6079222;29;20268;-63
2022/01/19 00:51:00;;;;;;;32.30;26.10;;;;;;;;;;6100174;28;20583;-65
2022/01/19 00:54:21;;;;;;;42.00;28.03;;;;;;;;;;6081710;29;20237;-64
2022/01/19 00:57:43;;;;;;;38.00;28.40;;;;;;;;;;6082112;29;20240;-64
2022/01/19 01:01:03;;;;;;;39.93;30.37;;;;;;;;;;6079446;29;20256;-64
2022/01/19 01:04:24;;;;;;;36.27;27.77;;;;;;;;;;6095440;28;20233;-64
2022/01/19 01:07:44;;;;;;;34.83;24.40;;;;;;;;;;6088168;29;20603;-65
2022/01/19 01:11:05;;;;;;;37.27;27.43;;;;;;;;;;6091416;28;20340;-63
2022/01/19 01:18:19;;;;;;;37.27;26.77;;;;;;;;;;6103365;28;20229;-64
2022/01/19 01:21:40;;;;;;;37.60;29.70;;;;;;;;;;6100017;29;20236;-63
2022/01/19 01:25:01;;;;;;;40.90;27.60;;;;;;;;;;6082777;29;20241;-64
2022/01/19 01:28:22;;;;;;;33.40;26.53;;;;;;;;;;6107122;28;20233;-63
2022/01/19 01:31:44;;;;;;;31.17;24.57;;;;;;;;;;6096839;29;20229;-64
2022/01/19 01:35:05;;;;;;;28.50;22.97;;;;;;;;;;6093164;28;20607;-64
2022/01/19 01:38:26;;;;;;;31.60;24.20;;;;;;;;;;6093747;28;20244;-64
2022/01/19 01:41:46;;;;;;;33.67;25.83;;;;;;;;;;6108714;28;20233;-63
2022/01/19 01:45:14;;;;;;;33.57;25.43;;;;;;;;;;6088118;29;20236;-64
2022/01/19 01:48:42;;;;;;;31.37;25.30;;;;;;;;;;6076009;29;20229;-65
2022/01/19 01:55:51;;;;;;;31.93;27.83;;;;;;;;;;6081400;29;20232;-63
2022/01/19 01:59:11;;;;;;;33.90;26.80;;;;;;;;;;6093129;28;20906;-64
2022/01/19 02:02:54;;;;;;;31.13;22.30;;;;;;;;;;6092336;29;20599;-63
2022/01/19 02:06:31;;;;;;;27.90;19.93;;;;;;;;;;6097387;29;20332;-65
2022/01/19 02:10:16;;;;;;;29.77;23.93;;;;;;;;;;6099955;29;20995;-62
2022/01/19 02:24:43;;;;;;;37.57;27.43;;;;;;;;;;6105373;29;20260;-64
2022/01/19 02:42:51;;;;;;;27.00;20.47;;;;;;;;;;6089975;29;20288;-64
2022/01/19 02:49:51;;;;;;;28.97;20.40;;;;;;;;;;6082940;29;20559;-64
2022/01/19 02:53:11;;;;;;;29.17;21.03;;;;;;;;;;6111060;28;20241;-62
2022/01/19 02:56:37;;;;;;;32.53;19.73;;;;;;;;;;6083999;29;20241;-64
2022/01/19 03:10:51;;;;;;;25.20;17.43;;;;;;;;;;6103092;29;20713;-62
2022/01/19 03:14:13;;;;;;;28.77;19.77;;;;;;;;;;6102601;28;20276;-64
2022/01/19 03:17:34;;;;;;;24.87;18.43;;;;;;;;;;6089266;28;20320;-64
2022/01/19 03:20:55;;;;;;;24.13;17.87;;;;;;;;;;6083633;29;20240;-63
2022/01/19 03:24:15;;;;;;;26.47;17.70;;;;;;;;;;6102707;28;20229;-64
2022/01/19 03:27:35;;;;;;;25.27;17.93;;;;;;;;;;6101785;29;20267;-63
2022/01/19 03:30:58;;;;;;;25.37;17.43;;;;;;;;;;6099757;29;20236;-64
2022/01/19 03:34:20;;;;;;;19.03;16.50;;;;;;;;;;6072479;29;20229;-63
2022/01/19 03:37:46;;;;;;;24.87;15.90;;;;;;;;;;6087157;29;20228;-64
2022/01/19 03:41:07;;;;;;;26.53;16.87;;;;;;;;;;6093777;29;20225;-63
2022/01/19 03:44:28;;;;;;;22.53;16.37;;;;;;;;;;6100377;28;20500;-63
2022/01/19 03:47:55;;;;;;;20.73;16.43;;;;;;;;;;6105812;28;20229;-63
2022/01/19 03:51:16;;;;;;;25.13;18.03;;;;;;;;;;6104395;29;20554;-63
2022/01/19 03:54:38;;;;;;;25.87;17.93;;;;;;;;;;6105348;29;20491;-64
2022/01/19 03:57:58;;;;;;;27.43;19.33;;;;;;;;;;6087642;29;20239;-63
2022/01/19 04:01:19;;;;;;;25.17;16.60;;;;;;;;;;6086702;29;20709;-63
2022/01/19 04:04:46;;;;;;;24.90;16.53;;;;;;;;;;6090547;29;20221;-63
2022/01/19 04:08:06;;;;;;;23.67;17.67;;;;;;;;;;6089791;28;20508;-64
2022/01/19 04:11:27;;;;;;;26.10;17.93;;;;;;;;;;6078336;29;20241;-62
2022/01/19 04:14:49;;;;;;;24.17;17.23;;;;;;;;;;6100109;29;20614;-64
2022/01/19 04:18:13;;;;;;;24.77;17.00;;;;;;;;;;6088792;29;20598;-64
2022/01/19 04:21:35;;;;;;;26.73;18.97;;;;;;;;;;6089669;29;20224;-64
2022/01/19 04:24:55;;;;;;;26.90;18.30;;;;;;;;;;6093224;29;20236;-63
2022/01/19 04:28:16;;;;;;;26.17;19.33;;;;;;;;;;6105419;29;20554;-64
2022/01/19 04:31:41;;;;;;;29.23;18.53;;;;;;;;;;6090399;29;20237;-65
2022/01/19 04:35:07;;;;;;;34.50;20.53;;;;;;;;;;6098957;29;20232;-63
2022/01/19 05:04:32;;;;;;;24.40;15.27;;;;;;;;;;6077423;29;20236;-64
2022/01/19 05:08:11;;;;;;;18.00;14.43;;;;;;;;;;6097989;28;20236;-63
2022/01/19 05:15:12;;;;;;;21.83;15.60;;;;;;;;;;6104736;29;20316;-64
2022/01/19 05:18:33;;;;;;;23.57;16.70;;;;;;;;;;6092641;28;20229;-64
2022/01/19 05:21:53;;;;;;;26.77;15.67;;;;;;;;;;6098305;29;20236;-65
2022/01/19 05:25:21;;;;;;;20.77;13.13;;;;;;;;;;6094191;29;20237;-64
2022/01/19 05:28:52;;;;;;;21.93;16.13;;;;;;;;;;6087079;29;20248;-64
2022/01/19 05:32:15;;;;;;;27.60;19.50;;;;;;;;;;6091393;29;20245;-65
2022/01/19 05:35:35;;;;;;;22.33;14.63;;;;;;;;;;6090497;28;20236;-64
2022/01/19 05:39:00;;;;;;;19.47;14.73;;;;;;;;;;6092366;28;20233;-64
2022/01/19 05:42:52;;;;;;;26.67;14.47;;;;;;;;;;6105837;28;20236;-64
2022/01/19 05:46:14;;;;;;;20.13;12.07;;;;;;;;;;6093687;29;20270;-63
2022/01/19 05:49:37;;;;;;;19.20;12.53;;;;;;;;;;6087363;29;20571;-64
2022/01/19 05:52:58;;;;;;;22.20;13.50;;;;;;;;;;6100221;28;20233;-64
2022/01/19 05:56:18;;;;;;;19.00;14.07;;;;;;;;;;6093558;29;20229;-64
2022/01/19 05:59:51;;;;;;;17.23;12.50;;;;;;;;;;6102146;29;20811;-62
2022/01/19 06:03:13;;;;;;;15.63;13.03;;;;;;;;;;6085479;29;20256;-63
2022/01/19 06:06:55;;;;;;;19.93;14.23;;;;;;;;;;6088646;28;20548;-64
2022/01/19 06:10:44;;;;;;;25.87;16.13;;;;;;;;;;6101224;29;20229;-63
2022/01/19 06:14:05;;;;;;;22.53;16.23;;;;;;;;;;6091514;29;20232;-63
2022/01/19 06:17:26;;;;;;;24.90;17.10;;;;;;;;;;6089954;29;20540;-63
2022/01/19 06:20:47;;;;;;;29.43;22.80;;;;;;;;;;6088197;29;20236;-64
2022/01/19 06:24:12;;;;;;;33.47;23.10;;;;;;;;;;6089105;29;20229;-64
2022/01/19 06:27:33;;;;;;;34.37;22.40;;;;;;;;;;6090310;29;20319;-63
2022/01/19 06:30:54;;;;;;;36.40;24.40;;;;;;;;;;6093915;29;20241;-65
2022/01/19 06:34:15;;;;;;;36.57;24.40;;;;;;;;;;6104159;29;20228;-64
2022/01/19 06:37:59;;;;;;;39.23;24.33;;;;;;;;;;6096894;29;20264;-66
2022/01/19 06:41:53;;;;;;;36.13;25.07;;;;;;;;;;6093282;29;20244;-64
2022/01/19 06:45:14;;;;;;;36.33;25.67;;;;;;;;;;6090618;29;20248;-64
2022/01/19 06:48:35;;;;;;;38.37;28.30;;;;;;;;;;6102468;28;20623;-64
2022/01/19 06:52:01;;;;;;;38.23;27.93;;;;;;;;;;6076467;28;20529;-64
2022/01/19 06:55:22;;;;;;;41.47;25.80;;;;;;;;;;6089143;29;20248;-64
2022/01/19 06:58:44;;;;;;;38.83;27.63;;;;;;;;;;6097328;28;20267;-64
2022/01/19 07:02:14;;;;;;;36.57;24.93;;;;;;;;;;6091280;29;20256;-64
2022/01/19 07:05:43;;;;;;;35.87;25.90;;;;;;;;;;6093215;28;20236;-63
2022/01/19 07:09:29;;;;;;;37.47;26.03;;;;;;;;;;6081967;29;20237;-65
2022/01/19 07:12:51;;;;;;;42.27;26.07;;;;;;;;;;6071018;29;20245;-65
2022/01/19 07:16:15;;;;;;;44.07;25.10;;;;;;;;;;6087142;28;20243;-64
2022/01/19 07:19:36;;;;;;;36.53;23.50;;;;;;;;;;6083570;28;20253;-65
2022/01/19 07:22:59;;;;;;;42.40;24.57;;;;;;;;;;6100361;29;20248;-63
2022/01/19 07:26:19;;;;;;;40.10;23.40;;;;;;;;;;6078122;29;20241;-64
2022/01/19 07:29:40;;;;;;;47.33;26.67;;;;;;;;;;6081548;28;20236;-65
2022/01/19 07:33:03;;;;;;;38.60;26.73;;;;;;;;;;6082782;28;20449;-63
2022/01/19 07:36:23;;;;;;;43.37;25.77;;;;;;;;;;6086027;28;20239;-64
2022/01/19 07:39:44;;;;;;;37.37;26.63;;;;;;;;;;6091140;28;20244;-63
2022/01/19 07:43:04;;;;;;;41.40;25.63;;;;;;;;;;6060408;29;20627;-64
2022/01/19 07:46:48;;;;;;;49.50;30.37;;;;;;;;;;6087655;28;20236;-63
2022/01/19 07:50:22;;;;;;;44.63;28.53;;;;;;;;;;6097590;28;20237;-63
2022/01/19 07:54:03;;;;;;;41.20;27.23;;;;;;;;;;6105967;28;20256;-64
2022/01/19 07:57:29;;;;;;;41.17;28.70;;;;;;;;;;6090945;28;20232;-64
2022/01/19 08:01:00;;;;;;;37.50;26.87;;;;;;;;;;6089847;28;20229;-64
2022/01/19 08:04:41;;;;;;;47.30;29.63;;;;;;;;;;6084673;29;20241;-64
2022/01/19 08:08:04;;;;;;;39.03;24.23;;;;;;;;;;6087761;28;20237;-63
2022/01/19 08:11:24;;;;;;;43.77;30.87;;;;;;;;;;6088669;29;20232;-64
2022/01/19 08:15:06;;;;;;;43.40;31.73;;;;;;;;;;6085647;28;20228;-63
2022/01/19 08:18:29;;;;;;;44.40;30.80;;;;;;;;;;6103525;28;20236;-64
2022/01/19 08:21:49;;;;;;;45.30;32.03;;;;;;;;;;6082185;29;20236;-63
2022/01/19 08:25:11;;;;;;;51.87;34.70;;;;;;;;;;6084144;29;20233;-63
2022/01/19 08:28:32;;;;;;;48.80;31.70;;;;;;;;;;6091466;29;20802;-64
2022/01/19 08:31:53;;;;;;;50.90;31.57;;;;;;;;;;6088142;28;20236;-65
2022/01/19 08:35:40;;;;;;;51.97;31.80;;;;;;;;;;6086690;28;20256;-65
2022/01/19 08:39:20;;;;;;;54.47;34.27;;;;;;;;;;6061599;29;20233;-66
2022/01/19 08:42:45;;;;;;;53.67;35.33;;;;;;;;;;6073235;29;20327;-67
2022/01/19 08:46:05;;;;;;;49.20;31.23;;;;;;;;;;6087760;28;20225;-66
2022/01/19 08:49:55;;;;;;;58.00;37.63;;;;;;;;;;6073297;29;20249;-66
2022/01/19 08:53:37;;;;;;;45.97;32.80;;;;;;;;;;6094875;28;20260;-66
2022/01/19 08:57:14;;;;;;;47.93;33.23;;;;;;;;;;6102250;28;20244;-67
2022/01/19 09:00:36;;;;;;;52.80;35.10;;;;;;;;;;6081223;28;20327;-66
2022/01/19 09:03:57;;;;;;;45.30;30.73;;;;;;;;;;6089175;28;20244;-65
2022/01/19 09:07:19;;;;;;;46.37;32.97;;;;;;;;;;6083470;29;20614;-65
2022/01/19 09:10:41;;;;;;;51.50;34.53;;;;;;;;;;6094412;28;20311;-67
2022/01/19 09:14:03;;;;;;;54.40;39.27;;;;;;;;;;6088289;29;20236;-64
2022/01/19 09:17:25;;;;;;;44.27;31.83;;;;;;;;;;6083568;28;20233;-64
2022/01/19 09:20:47;;;;;;;48.77;33.33;;;;;;;;;;6097548;28;20246;-66
2022/01/19 09:24:09;;;;;;;47.87;36.10;;;;;;;;;;6093264;29;20327;-65
2022/01/19 09:27:30;;;;;;;53.00;36.20;;;;;;;;;;6084125;28;20260;-64
2022/01/19 09:30:50;;;;;;;53.03;35.90;;;;;;;;;;6066925;29;20253;-64
2022/01/19 09:34:15;;;;;;;57.83;37.33;;;;;;;;;;6093050;29;20220;-65
2022/01/19 09:37:36;;;;;;;45.07;32.50;;;;;;;;;;6087990;28;20228;-65
2022/01/19 09:40:57;;;;;;;54.87;36.87;;;;;;;;;;6086928;29;20244;-64
2022/01/19 09:44:19;;;;;;;52.93;35.70;;;;;;;;;;6082797;28;20233;-65
2022/01/19 09:47:39;;;;;;;50.00;32.17;;;;;;;;;;6094535;29;20271;-64
2022/01/19 09:51:01;;;;;;;47.10;33.60;;;;;;;;;;6092587;29;20232;-64
2022/01/19 09:54:23;;;;;;;48.83;33.17;;;;;;;;;;6087157;29;20657;-64
2022/01/19 09:57:43;;;;;;;49.37;34.20;;;;;;;;;;6078964;28;20245;-66
2022/01/19 10:01:04;;;;;;;45.70;31.37;;;;;;;;;;6088879;29;20241;-64
2022/01/19 10:04:25;;;;;;;38.40;30.43;;;;;;;;;;6084929;28;20237;-65
2022/01/19 10:07:47;;;;;;;43.67;31.37;;;;;;;;;;6087283;29;20240;-64
2022/01/19 10:11:10;;;;;;;49.00;32.03;;;;;;;;;;6076337;29;20343;-66
2022/01/19 10:18:10;;;;;;;46.37;31.13;;;;;;;;;;6090083;28;20610;-65
2022/01/19 10:21:31;;;;;;;53.97;33.07;;;;;;;;;;6093278;28;20248;-66
2022/01/19 10:24:53;;;;;;;45.10;29.90;;;;;;;;;;6090690;29;20236;-66
2022/01/19 10:28:14;;;;;;;45.13;30.77;;;;;;;;;;6095728;29;20612;-65
2022/01/19 10:31:35;;;;;;;37.67;27.83;;;;;;;;;;6072715;29;20237;-64
2022/01/19 10:34:56;;;;;;;48.53;33.37;;;;;;;;;;6067736;29;20735;-66
2022/01/19 10:38:18;;;;;;;44.43;30.17;;;;;;;;;;6084922;29;20324;-64
2022/01/19 10:41:56;;;;;;;43.77;32.07;;;;;;;;;;6095189;29;20722;-65
2022/01/19 10:45:16;;;;;;;40.90;28.43;;;;;;;;;;6090420;29;20241;-62
2022/01/19 10:48:38;;;;;;;42.93;30.23;;;;;;;;;;6094929;28;21000;-62
2022/01/19 10:51:58;;;;;;;41.53;28.60;;;;;;;;;;6084656;28;20239;-64
2022/01/19 10:55:27;;;;;;;40.97;30.50;;;;;;;;;;6089792;29;20245;-64
2022/01/19 10:58:55;;;;;;;39.73;27.47;;;;;;;;;;6084424;29;20327;-66
2022/01/19 11:02:16;;;;;;;41.67;31.03;;;;;;;;;;6082361;29;20239;-66
2022/01/19 11:05:40;;;;;;;43.50;29.33;;;;;;;;;;6093618;29;20598;-65
2022/01/19 11:09:01;;;;;;;49.23;33.57;;;;;;;;;;6095876;29;20233;-65
2022/01/19 11:12:24;;;;;;;46.23;31.77;;;;;;;;;;6085490;28;20796;-65
2022/01/19 11:15:47;;;;;;;46.13;30.10;;;;;;;;;;6087593;29;20240;-64
2022/01/19 11:19:08;;;;;;;43.67;30.40;;;;;;;;;;6081520;28;20244;-65
2022/01/19 11:22:34;;;;;;;46.07;32.43;;;;;;;;;;6080152;29;20323;-64
2022/01/19 11:25:57;;;;;;;45.97;30.90;;;;;;;;;;6082590;29;20244;-66
2022/01/19 11:29:19;;;;;;;41.30;27.83;;;;;;;;;;6083997;28;20236;-64
2022/01/19 11:32:42;;;;;;;43.87;28.43;;;;;;;;;;6083405;28;20625;-64
2022/01/19 11:36:04;;;;;;;42.30;29.40;;;;;;;;;;6078929;29;20248;-63
2022/01/19 11:39:27;;;;;;;43.10;27.63;;;;;;;;;;6076174;29;20808;-64
2022/01/19 11:42:47;;;;;;;36.83;25.93;;;;;;;;;;6073503;29;20320;-63
2022/01/19 11:46:25;;;;;;;40.73;25.90;;;;;;;;;;6079630;29;20237;-63
2022/01/19 11:49:49;;;;;;;36.80;28.13;;;;;;;;;;6076933;28;20240;-65
2022/01/19 11:53:12;;;;;;;39.17;29.03;;;;;;;;;;6085961;29;20232;-64
2022/01/19 11:56:35;;;;;;;42.70;31.73;;;;;;;;;;6089238;29;20224;-64
2022/01/19 12:00:06;;;;;;;40.83;27.27;;;;;;;;;;6090108;29;20228;-65
2022/01/19 12:03:33;;;;;;;44.13;28.73;;;;;;;;;;6086217;29;20241;-64
2022/01/19 12:06:55;;;;;;;39.90;26.07;;;;;;;;;;6091444;29;20228;-64
2022/01/19 12:10:19;;;;;;;39.87;30.27;;;;;;;;;;6087849;29;20268;-65
2022/01/19 12:13:58;;;;;;;39.87;30.40;;;;;;;;;;6089248;29;20240;-65
2022/01/19 12:17:26;;;;;;;44.30;30.37;;;;;;;;;;6089133;28;20580;-64
2022/01/19 12:20:50;;;;;;;41.63;32.00;;;;;;;;;;6091145;29;20263;-64
2022/01/19 12:24:19;;;;;;;42.40;32.97;;;;;;;;;;6089266;29;20475;-64
2022/01/19 12:27:41;;;;;;;39.17;28.90;;;;;;;;;;6083119;29;20607;-64
2022/01/19 12:31:29;;;;;;;40.03;29.57;;;;;;;;;;6086894;29;20347;-64
2022/01/19 12:34:51;;;;;;;39.70;31.13;;;;;;;;;;6091812;28;20233;-64
2022/01/19 12:38:19;;;;;;;41.50;31.27;;;;;;;;;;6082037;28;20236;-64
2022/01/19 12:41:54;;;;;;;35.03;26.30;;;;;;;;;;6079338;29;20228;-64
2022/01/19 12:45:16;;;;;;;35.53;29.47;;;;;;;;;;6074424;28;20319;-64
2022/01/19 12:48:38;;;;;;;38.47;30.23;;;;;;;;;;6087716;29;20256;-64
2022/01/19 12:52:00;;;;;;;38.27;29.60;;;;;;;;;;6076242;28;20648;-65
2022/01/19 12:55:21;;;;;;;40.30;30.20;;;;;;;;;;6084230;28;20826;-64
2022/01/19 12:58:43;;;;;;;34.47;28.47;;;;;;;;;;6082335;28;20236;-65
2022/01/19 13:02:04;;;;;;;38.83;29.63;;;;;;;;;;6086272;28;20224;-64
2022/01/19 13:05:29;;;;;;;37.57;30.53;;;;;;;;;;6080168;29;20229;-64
2022/01/19 13:08:58;;;;;;;34.00;29.10;;;;;;;;;;6088768;29;20282;-65
2022/01/19 13:12:19;;;;;;;37.23;29.87;;;;;;;;;;6078669;28;20240;-64
2022/01/19 13:15:42;;;;;;;35.63;28.43;;;;;;;;;;6084975;29;20232;-64
2022/01/19 13:19:05;;;;;;;37.87;30.80;;;;;;;;;;6082667;28;20328;-64
2022/01/19 13:22:25;;;;;;;44.77;31.10;;;;;;;;;;6088979;28;20225;-64
2022/01/19 13:25:54;;;;;;;33.70;29.37;;;;;;;;;;6088724;28;20718;-63
2022/01/19 13:29:16;;;;;;;41.40;31.13;;;;;;;;;;6077415;29;20327;-65
2022/01/19 13:32:39;;;;;;;37.80;30.60;;;;;;;;;;6091443;29;21063;-64
2022/01/19 13:36:00;;;;;;;35.23;28.73;;;;;;;;;;6088404;29;20245;-65
2022/01/19 13:39:21;;;;;;;38.27;31.10;;;;;;;;;;6085749;29;20232;-64
2022/01/19 13:42:43;;;;;;;36.80;30.83;;;;;;;;;;6085227;29;20250;-64
2022/01/19 13:46:15;;;;;;;34.97;29.47;;;;;;;;;;6075378;28;20236;-64
2022/01/19 13:49:37;;;;;;;32.20;26.03;;;;;;;;;;6097891;29;20583;-64
2022/01/19 13:53:00;;;;;;;36.23;26.47;;;;;;;;;;6098619;29;20244;-64
2022/01/19 13:56:25;;;;;;;39.33;31.63;;;;;;;;;;6089360;29;20232;-64
2022/01/19 13:59:46;;;;;;;36.80;29.20;;;;;;;;;;6084053;29;20237;-64
2022/01/19 14:03:07;;;;;;;35.83;27.63;;;;;;;;;;6093419;29;20237;-64
2022/01/19 14:06:30;;;;;;;41.80;30.47;;;;;;;;;;6076579;29;20300;-65
2022/01/19 14:09:50;;;;;;;48.80;29.97;;;;;;;;;;6103439;29;20250;-64
2022/01/19 14:13:28;;;;;;;39.00;33.03;;;;;;;;;;6082932;28;20229;-64
2022/01/19 14:16:49;;;;;;;44.83;29.70;;;;;;;;;;6087487;29;20759;-65
2022/01/19 14:20:15;;;;;;;38.03;31.37;;;;;;;;;;6093960;28;20260;-65
2022/01/19 14:23:37;;;;;;;38.70;28.37;;;;;;;;;;6090582;29;20224;-63
2022/01/19 14:26:58;;;;;;;41.03;29.90;;;;;;;;;;6090780;28;20240;-64
2022/01/19 14:30:23;;;;;;;37.30;29.70;;;;;;;;;;6088678;28;20811;-64
2022/01/19 14:33:48;;;;;;;34.17;27.90;;;;;;;;;;6078285;29;20245;-64
2022/01/19 14:37:16;;;;;;;36.83;32.00;;;;;;;;;;6073176;29;20287;-63
2022/01/19 14:40:48;;;;;;;45.63;31.30;;;;;;;;;;6088973;29;20233;-64
2022/01/19 14:44:19;;;;;;;38.07;31.30;;;;;;;;;;6088526;29;20240;-64
2022/01/19 14:47:40;;;;;;;37.57;30.17;;;;;;;;;;6079215;29;20240;-65
2022/01/19 14:51:01;;;;;;;40.33;34.03;;;;;;;;;;6095225;28;20253;-64
2022/01/19 14:54:23;;;;;;;38.03;31.33;;;;;;;;;;6093785;28;20232;-62
2022/01/19 14:57:47;;;;;;;39.93;30.97;;;;;;;;;;6088105;29;20236;-63
2022/01/19 15:01:08;;;;;;;41.73;33.40;;;;;;;;;;6087417;29;20241;-64
2022/01/19 15:04:28;;;;;;;41.93;31.83;;;;;;;;;;6095714;28;20232;-64
2022/01/19 15:07:49;;;;;;;48.10;33.80;;;;;;;;;;6093033;28;20519;-63
2022/01/19 15:11:09;;;;;;;53.93;32.80;;;;;;;;;;6090425;29;20233;-64
2022/01/19 15:14:31;;;;;;;43.93;32.63;;;;;;;;;;6086929;29;20237;-63
2022/01/19 15:17:52;;;;;;;42.37;33.20;;;;;;;;;;6085385;29;20244;-64
2022/01/19 15:21:13;;;;;;;47.73;33.83;;;;;;;;;;6065257;29;20233;-63
2022/01/19 15:24:34;;;;;;;47.33;37.00;;;;;;;;;;6083592;29;20228;-64
2022/01/19 15:27:55;;;;;;;49.23;36.73;;;;;;;;;;6069531;29;20619;-63
2022/01/19 15:31:17;;;;;;;45.33;33.70;;;;;;;;;;6087077;29;20232;-64
2022/01/19 15:34:37;;;;;;;47.63;36.90;;;;;;;;;;6077510;28;20555;-65
2022/01/19 15:38:00;;;;;;;46.37;34.70;;;;;;;;;;6078309;28;20241;-64
2022/01/19 15:41:21;;;;;;;48.57;35.57;;;;;;;;;;6079085;29;20642;-64
2022/01/19 15:44:42;;;;;;;47.53;35.47;;;;;;;;;;6062594;29;20244;-64
2022/01/19 15:48:04;;;;;;;46.83;32.10;;;;;;;;;;6080839;29;20235;-65
2022/01/19 15:51:25;;;;;;;41.27;32.30;;;;;;;;;;6075413;29;20256;-64
2022/01/19 15:54:46;;;;;;;48.57;34.80;;;;;;;;;;6056913;29;20328;-67
2022/01/19 15:58:07;;;;;;;48.40;37.33;;;;;;;;;;6078424;29;20531;-65
2022/01/19 16:01:28;;;;;;;44.07;36.00;;;;;;;;;;6063544;29;21024;-64
2022/01/19 16:04:50;;;;;;;49.33;37.47;;;;;;;;;;6082428;29;20247;-65
2022/01/19 16:08:10;;;;;;;47.17;33.83;;;;;;;;;;6084562;28;20556;-62
2022/01/19 16:11:31;;;;;;;52.27;36.30;;;;;;;;;;6080381;29;20233;-66
2022/01/19 16:14:52;;;;;;;48.03;35.90;;;;;;;;;;6073184;29;20236;-64
2022/01/19 16:18:14;;;;;;;39.70;30.27;;;;;;;;;;6071022;28;20229;-66
2022/01/19 16:21:36;;;;;;;52.13;35.00;;;;;;;;;;6076625;29;20359;-63
2022/01/19 16:28:36;;;;;;;46.17;34.00;;;;;;;;;;6071509;29;20663;-64
2022/01/19 16:31:57;;;;;;;45.10;33.23;;;;;;;;;;6062314;28;20233;-64
2022/01/19 16:35:18;;;;;;;40.70;28.20;;;;;;;;;;6090169;29;20236;-64
2022/01/19 16:38:41;;;;;;;43.67;29.30;;;;;;;;;;6088177;28;20244;-65
2022/01/19 16:42:03;;;;;;;43.17;31.63;;;;;;;;;;6084559;29;20237;-64
2022/01/19 16:45:24;;;;;;;41.87;31.83;;;;;;;;;;6081158;29;20825;-64
2022/01/19 16:48:45;;;;;;;43.03;33.33;;;;;;;;;;6091541;28;20236;-62
2022/01/19 16:52:05;;;;;;;41.60;31.23;;;;;;;;;;6098989;28;20244;-65
2022/01/19 16:55:27;;;;;;;42.73;31.90;;;;;;;;;;6077316;29;20260;-64
2022/01/19 16:58:48;;;;;;;40.63;30.77;;;;;;;;;;6094040;28;20232;-64
2022/01/19 17:02:09;;;;;;;35.67;24.97;;;;;;;;;;6089899;29;20281;-63
2022/01/19 17:05:29;;;;;;;41.00;32.93;;;;;;;;;;6076943;29;20229;-64
2022/01/19 17:08:50;;;;;;;42.80;30.37;;;;;;;;;;6093890;29;20594;-66
2022/01/19 17:12:18;;;;;;;45.33;33.93;;;;;;;;;;6080836;28;20237;-64
2022/01/19 17:15:42;;;;;;;39.47;32.10;;;;;;;;;;6076258;29;20268;-65
2022/01/19 17:19:03;;;;;;;46.07;34.33;;;;;;;;;;6076900;28;20260;-65
2022/01/19 17:22:26;;;;;;;48.47;36.87;;;;;;;;;;6079561;29;20228;-64
2022/01/19 17:25:46;;;;;;;39.20;27.57;;;;;;;;;;6083859;28;20236;-64
2022/01/19 17:29:08;;;;;;;37.17;27.27;;;;;;;;;;6088957;28;20228;-64
2022/01/19 17:32:29;;;;;;;53.13;34.60;;;;;;;;;;6080401;29;20232;-64
2022/01/19 17:35:49;;;;;;;42.40;33.17;;;;;;;;;;6081730;29;20264;-64
2022/01/19 17:39:10;;;;;;;45.77;34.97;;;;;;;;;;6078602;28;20237;-64
2022/01/19 17:42:31;;;;;;;44.67;33.80;;;;;;;;;;6082129;29;20249;-63
2022/01/19 17:45:58;;;;;;;45.77;33.43;;;;;;;;;;6086790;28;20614;-64
2022/01/19 17:49:32;;;;;;;45.50;33.30;;;;;;;;;;6103070;28;20753;-64
2022/01/19 17:52:53;;;;;;;42.23;34.60;;;;;;;;;;6084781;29;20236;-64
2022/01/19 17:56:14;;;;;;;46.20;29.50;;;;;;;;;;6080210;29;20241;-64
2022/01/19 17:59:35;;;;;;;37.63;28.73;;;;;;;;;;6095104;29;20236;-64
2022/01/19 18:02:57;;;;;;;40.07;31.40;;;;;;;;;;6077620;29;20236;-64
2022/01/19 18:06:19;;;;;;;37.27;29.20;;;;;;;;;;6092665;29;20331;-64
2022/01/19 18:09:40;;;;;;;38.50;28.47;;;;;;;;;;6093544;29;20535;-64
2022/01/19 18:13:01;;;;;;;38.57;29.07;;;;;;;;;;6076671;29;20261;-65
2022/01/19 18:16:22;;;;;;;43.37;31.67;;;;;;;;;;6069455;29;20255;-64
2022/01/19 18:19:44;;;;;;;40.37;27.10;;;;;;;;;;6090474;28;20236;-63
2022/01/19 18:23:05;;;;;;;40.30;30.83;;;;;;;;;;6089788;28;20233;-64
2022/01/19 18:26:26;;;;;;;28.20;22.40;;;;;;;;;;6075047;29;20237;-65
2022/01/19 18:29:46;;;;;;;36.73;28.73;;;;;;;;;;6086788;29;20627;-65
2022/01/19 18:33:08;;;;;;;36.23;29.17;;;;;;;;;;6087212;29;20359;-64
2022/01/19 18:36:30;;;;;;;35.77;25.77;;;;;;;;;;6076080;29;20622;-65
2022/01/19 18:39:51;;;;;;;37.30;29.30;;;;;;;;;;6094112;29;20239;-64
2022/01/19 18:43:11;;;;;;;36.53;26.10;;;;;;;;;;6072280;29;20225;-64
2022/01/19 18:46:32;;;;;;;33.23;23.30;;;;;;;;;;6087789;28;20237;-65
2022/01/19 18:49:52;;;;;;;29.63;22.87;;;;;;;;;;6086829;29;20231;-64
2022/01/19 18:53:14;;;;;;;27.73;22.63;;;;;;;;;;6088526;28;20524;-65
2022/01/19 18:56:34;;;;;;;28.73;24.17;;;;;;;;;;6092003;29;20240;-65
2022/01/19 18:59:56;;;;;;;22.87;19.60;;;;;;;;;;6094572;28;20235;-64
2022/01/19 19:03:16;;;;;;;27.73;22.77;;;;;;;;;;6091844;28;20618;-64
2022/01/19 19:06:37;;;;;;;26.27;21.70;;;;;;;;;;6077890;28;20245;-65
2022/01/19 19:10:13;;;;;;;25.97;19.70;;;;;;;;;;6079705;29;20232;-64
2022/01/19 19:13:33;;;;;;;22.53;18.70;;;;;;;;;;6074141;29;20888;-64
2022/01/19 19:16:54;;;;;;;24.17;18.40;;;;;;;;;;6083004;29;20251;-64
2022/01/19 19:20:16;;;;;;;16.60;13.70;;;;;;;;;;6091362;28;20335;-65
2022/01/19 19:23:36;;;;;;;17.50;13.27;;;;;;;;;;6083508;29;20556;-65
2022/01/19 19:26:58;;;;;;;13.80;10.53;;;;;;;;;;6091365;29;20240;-64
2022/01/19 19:30:19;;;;;;;10.47;9.37;;;;;;;;;;6080321;29;20502;-65
2022/01/19 19:33:40;;;;;;;10.77;9.67;;;;;;;;;;6073753;28;20512;-65
2022/01/19 19:37:00;;;;;;;11.80;7.03;;;;;;;;;;6078106;29;20646;-64
2022/01/19 19:40:22;;;;;;;9.67;5.33;;;;;;;;;;6083775;29;20832;-64
2022/01/19 19:43:45;;;;;;;10.60;5.77;;;;;;;;;;6089260;28;20236;-63
2022/01/19 19:47:06;;;;;;;16.03;6.27;;;;;;;;;;6068718;29;20560;-64
2022/01/19 19:50:27;;;;;;;21.43;5.10;;;;;;;;;;6080504;29;20236;-64
2022/01/19 19:53:47;;;;;;;12.00;4.90;;;;;;;;;;6085926;28;20228;-64
2022/01/19 19:57:08;;;;;;;11.67;5.93;;;;;;;;;;6064590;28;20237;-63
2022/01/19 20:00:31;;;;;;;14.87;3.97;;;;;;;;;;6082466;29;20248;-64
2022/01/19 20:03:51;;;;;;;11.00;3.67;;;;;;;;;;6079971;29;20232;-65
2022/01/19 20:07:12;;;;;;;14.40;5.53;;;;;;;;;;6079542;29;20233;-64
2022/01/19 20:10:34;;;;;;;13.40;4.03;;;;;;;;;;6074923;28;20255;-63
2022/01/19 20:13:55;;;;;;;16.50;6.00;;;;;;;;;;6094461;28;22001;-63
2022/01/19 20:17:17;;;;;;;15.00;5.27;;;;;;;;;;6087843;28;20248;-64
2022/01/19 20:20:38;;;;;;;18.10;6.17;;;;;;;;;;6073602;29;20231;-65
2022/01/19 20:23:59;;;;;;;22.87;6.03;;;;;;;;;;6084362;29;20237;-64
2022/01/19 20:27:19;;;;;;;16.13;5.77;;;;;;;;;;6083788;28;20239;-64
2022/01/19 20:30:40;;;;;;;16.33;4.77;;;;;;;;;;6078202;29;20224;-65
2022/01/19 20:34:02;;;;;;;19.47;5.23;;;;;;;;;;6079914;29;20232;-64
2022/01/19 20:37:23;;;;;;;11.93;4.40;;;;;;;;;;6081609;28;20236;-64
2022/01/19 20:40:44;;;;;;;24.27;8.20;;;;;;;;;;6090288;28;20229;-64
2022/01/19 20:44:05;;;;;;;27.23;5.50;;;;;;;;;;6090401;28;20239;-63
2022/01/19 20:47:25;;;;;;;29.80;6.87;;;;;;;;;;6084997;29;20261;-65
2022/01/19 20:50:49;;;;;;;24.00;6.70;;;;;;;;;;6081763;28;20237;-64
2022/01/19 20:54:09;;;;;;;22.30;7.13;;;;;;;;;;6067078;29;20525;-64
2022/01/19 20:57:30;;;;;;;33.43;9.43;;;;;;;;;;6092516;28;20241;-64
2022/01/19 21:00:51;;;;;;;18.37;6.03;;;;;;;;;;6083824;29;20502;-63
2022/01/19 21:04:12;;;;;;;26.53;7.43;;;;;;;;;;6083324;29;20630;-63
2022/01/19 21:07:34;;;;;;;30.87;7.00;;;;;;;;;;6084674;28;20255;-64
2022/01/19 21:10:55;;;;;;;25.30;7.67;;;;;;;;;;6086566;28;20255;-64